Time;durP1;ratioP1;P1;durP2;ratioP2;P2;SDS_P1;SDS_P2;PMS_P1;PMS_P2;Temp;Humidity;BMP_temperature;BMP_pressure;BME280_temperature;BME280_humidity;BME280_pressure;Samples;Min_cycle;Max_cycle;Signal;HPM_P1;HPM_P2
2022/05/17 00:00:36;;;;;;;18.08;3.88;;;15.60;99.90;;;;;;4958612;28;20027;-49
2022/05/17 00:03:02;;;;;;;16.35;3.75;;;15.60;99.90;;;;;;4952445;29;20514;-50
2022/05/17 00:05:28;;;;;;;10.13;4.03;;;15.60;99.90;;;;;;4953299;29;20558;-48
2022/05/17 00:07:55;;;;;;;16.38;3.85;;;15.60;99.90;;;;;;4952554;29;20371;-49
2022/05/17 00:10:21;;;;;;;16.35;4.18;;;15.60;99.90;;;;;;4952900;29;20023;-48
2022/05/17 00:12:49;;;;;;;18.15;4.00;;;15.70;99.90;;;;;;4952380;29;20050;-50
2022/05/17 00:15:15;;;;;;;14.75;4.18;;;15.60;99.90;;;;;;4952094;29;20041;-48
2022/05/17 00:17:41;;;;;;;16.45;4.60;;;15.50;99.90;;;;;;4952103;29;20050;-49
2022/05/17 00:20:08;;;;;;;15.63;4.68;;;15.40;99.90;;;;;;4951950;29;20089;-49
2022/05/17 00:22:34;;;;;;;15.00;4.28;;;15.20;99.90;;;;;;4951629;29;20484;-49
2022/05/17 00:25:01;;;;;;;17.25;4.82;;;15.40;99.90;;;;;;4952009;29;20035;-49
2022/05/17 00:27:26;;;;;;;19.60;4.78;;;15.30;99.90;;;;;;4951738;28;20541;-49
2022/05/17 00:29:52;;;;;;;19.15;3.92;;;15.20;99.90;;;;;;4951500;29;20067;-49
2022/05/17 00:32:18;;;;;;;25.73;3.67;;;15.20;99.90;;;;;;4954124;28;20474;-50
2022/05/17 00:34:46;;;;;;;13.70;3.85;;;15.10;99.90;;;;;;4960009;28;20024;-50
2022/05/17 00:37:13;;;;;;;15.82;4.72;;;15.20;99.90;;;;;;4951202;29;20043;-50
2022/05/17 00:39:39;;;;;;;16.25;4.53;;;15.10;99.90;;;;;;4951151;29;20048;-49
2022/05/17 00:42:06;;;;;;;11.68;3.80;;;15.20;99.90;;;;;;4952221;29;20110;-49
2022/05/17 00:44:44;;;;;;;13.88;4.07;;;15.20;99.90;;;;;;4951025;29;20035;-49
2022/05/17 00:47:16;;;;;;;12.77;4.38;;;15.10;99.90;;;;;;4952098;29;20023;-49
2022/05/17 00:49:43;;;;;;;9.73;3.75;;;15.10;99.90;;;;;;4951635;29;20387;-49
2022/05/17 00:52:38;;;;;;;10.02;3.63;;;15.10;99.90;;;;;;4950632;29;20030;-51
2022/05/17 00:55:09;;;;;;;9.50;3.70;;;15.00;99.90;;;;;;4952567;29;20541;-49
2022/05/17 00:57:47;;;;;;;11.98;3.60;;;14.90;99.90;;;;;;4952387;29;20122;-49
2022/05/17 01:00:15;;;;;;;10.20;3.80;;;14.90;99.90;;;;;;4952223;29;20105;-50
2022/05/17 01:02:53;;;;;;;10.20;3.70;;;14.70;99.90;;;;;;4951649;29;20042;-50
2022/05/17 01:05:23;;;;;;;11.82;3.53;;;14.80;99.90;;;;;;4950778;29;20114;-49
2022/05/17 01:07:55;;;;;;;13.40;4.20;;;14.80;99.90;;;;;;4951062;29;20028;-49
2022/05/17 01:10:23;;;;;;;9.10;4.53;;;14.80;99.90;;;;;;4950752;29;20049;-48
2022/05/17 01:14:57;;;;;;;11.23;4.22;;;14.90;99.90;;;;;;4950749;29;20390;-48
2022/05/17 01:15:36;;;;;;;13.48;5.05;;;15.00;99.90;;;;;;4951781;29;20031;-49
2022/05/17 01:18:04;;;;;;;9.77;4.15;;;14.90;99.90;;;;;;4951234;29;20046;-50
2022/05/17 01:20:32;;;;;;;11.68;4.18;;;14.90;99.90;;;;;;4949240;29;20035;-50
2022/05/17 01:22:58;;;;;;;;;;;14.80;99.90;;;;;;4951907;29;20039;-48
2022/05/17 01:25:25;;;;;;;13.57;4.32;;;14.80;99.90;;;;;;4950988;29;19907;-51
2022/05/17 01:28:17;;;;;;;11.75;3.75;;;14.80;99.90;;;;;;4933696;29;20039;-52
2022/05/17 01:30:43;;;;;;;13.68;3.90;;;14.80;99.90;;;;;;4938089;29;20046;-48
2022/05/17 01:33:18;;;;;;;15.30;4.28;;;14.80;99.90;;;;;;4950966;29;20054;-51
2022/05/17 01:35:44;;;;;;;8.02;3.25;;;14.70;99.90;;;;;;4961735;28;20035;-48
2022/05/17 01:38:10;;;;;;;14.23;3.72;;;14.80;99.90;;;;;;4970222;28;20041;-49
2022/05/17 01:40:36;;;;;;;8.20;3.65;;;14.80;99.90;;;;;;4955408;28;20042;-48
2022/05/17 01:43:02;;;;;;;14.60;4.07;;;14.80;99.90;;;;;;4951042;29;20028;-50
2022/05/17 01:45:29;;;;;;;8.82;3.55;;;14.80;99.90;;;;;;4949960;29;20478;-49
2022/05/17 01:47:54;;;;;;;13.63;3.63;;;14.70;99.90;;;;;;4950627;29;20083;-50
2022/05/17 01:50:21;;;;;;;12.35;3.40;;;14.80;99.90;;;;;;4951019;29;20059;-50
2022/05/17 01:52:47;;;;;;;10.25;3.83;;;14.70;99.90;;;;;;4950079;29;20033;-50
2022/05/17 01:55:13;;;;;;;14.20;3.80;;;14.70;99.90;;;;;;4951103;29;20047;-51
2022/05/17 01:57:38;;;;;;;9.20;3.50;;;14.60;99.90;;;;;;4950278;29;20035;-50
2022/05/17 02:00:07;;;;;;;7.35;3.17;;;14.70;99.90;;;;;;4950407;29;20028;-49
2022/05/17 02:02:33;;;;;;;9.10;3.80;;;14.70;99.90;;;;;;4950224;29;20043;-49
2022/05/17 02:04:58;;;;;;;11.95;4.10;;;14.70;99.90;;;;;;4950205;29;20074;-49
2022/05/17 02:07:24;;;;;;;7.63;2.92;;;14.70;99.90;;;;;;4951120;29;20027;-49
2022/05/17 02:09:50;;;;;;;10.32;3.33;;;14.70;99.90;;;;;;4950985;29;20027;-51
2022/05/17 02:12:17;;;;;;;9.00;2.88;;;14.80;99.90;;;;;;4951090;29;20602;-50
2022/05/17 02:14:43;;;;;;;7.60;2.67;;;14.80;99.90;;;;;;4950952;29;20031;-49
2022/05/17 02:17:08;;;;;;;12.55;3.53;;;14.80;99.90;;;;;;4951352;29;20024;-50
2022/05/17 02:19:34;;;;;;;8.70;3.08;;;14.80;99.90;;;;;;4950984;29;20398;-49
2022/05/17 02:21:59;;;;;;;9.82;4.28;;;14.90;99.90;;;;;;4950808;29;20031;-49
2022/05/17 02:24:27;;;;;;;8.65;3.58;;;14.80;99.90;;;;;;4950941;29;20039;-50
2022/05/17 02:26:54;;;;;;;10.18;2.72;;;14.80;99.90;;;;;;4933838;29;20023;-49
2022/05/17 02:29:19;;;;;;;12.20;3.78;;;14.80;99.90;;;;;;4951258;29;20027;-50
2022/05/17 02:31:45;;;;;;;8.40;2.95;;;14.80;99.90;;;;;;4941274;28;20142;-50
2022/05/17 02:34:11;;;;;;;9.95;2.85;;;14.70;99.90;;;;;;4931485;28;20035;-48
2022/05/17 02:36:37;;;;;;;13.20;3.47;;;14.80;99.90;;;;;;4958774;28;20035;-51
2022/05/17 02:39:02;;;;;;;9.80;2.95;;;14.90;99.90;;;;;;4969975;28;20030;-48
2022/05/17 02:41:28;;;;;;;8.63;3.15;;;14.90;99.90;;;;;;4970189;28;20054;-48
2022/05/17 02:43:54;;;;;;;10.32;3.15;;;14.90;99.90;;;;;;4969606;28;20031;-49
2022/05/17 02:46:19;;;;;;;6.30;2.95;;;14.90;99.90;;;;;;4970721;28;20352;-48
2022/05/17 02:48:45;;;;;;;6.63;3.35;;;14.90;99.90;;;;;;4969796;28;20157;-54
2022/05/17 02:51:14;;;;;;;9.88;3.35;;;14.90;99.90;;;;;;4972641;28;20899;-51
2022/05/17 02:53:40;;;;;;;9.18;3.28;;;14.90;99.90;;;;;;4973703;28;20097;-49
2022/05/17 02:56:06;;;;;;;5.28;2.78;;;14.90;99.90;;;;;;4973365;28;20541;-49
2022/05/17 02:58:31;;;;;;;10.93;3.22;;;14.90;99.90;;;;;;4973399;28;20042;-51
2022/05/17 03:00:57;;;;;;;12.75;2.97;;;15.00;99.90;;;;;;4973310;28;20110;-50
2022/05/17 03:03:23;;;;;;;14.95;3.25;;;14.90;99.90;;;;;;4973077;28;20026;-51
2022/05/17 03:05:49;;;;;;;23.15;3.17;;;14.90;99.90;;;;;;4973283;28;20030;-50
2022/05/17 03:08:15;;;;;;;9.18;3.28;;;14.90;99.90;;;;;;4973263;28;20031;-46
2022/05/17 03:10:40;;;;;;;18.45;2.72;;;14.80;99.90;;;;;;4954104;29;20027;-49
2022/05/17 03:13:10;;;;;;;9.85;2.97;;;14.70;99.90;;;;;;4953978;29;20035;-49
2022/05/17 03:15:36;;;;;;;14.02;3.17;;;14.70;99.90;;;;;;4953851;29;20023;-49
2022/05/17 03:18:03;;;;;;;14.10;3.25;;;14.70;99.90;;;;;;4953644;29;20043;-49
2022/05/17 03:20:28;;;;;;;13.23;3.73;;;14.60;99.90;;;;;;4954061;29;20031;-48
2022/05/17 03:22:54;;;;;;;16.33;3.33;;;14.70;99.90;;;;;;4953535;29;20050;-49
2022/05/17 03:25:20;;;;;;;9.63;3.40;;;14.70;99.90;;;;;;4953586;29;20035;-49
2022/05/17 03:27:46;;;;;;;20.25;3.83;;;14.60;99.90;;;;;;4953586;29;20031;-48
2022/05/17 03:30:12;;;;;;;13.10;3.83;;;14.70;99.90;;;;;;4953472;29;20103;-48
2022/05/17 03:32:38;;;;;;;7.65;3.10;;;14.70;99.90;;;;;;4952717;29;20054;-48
2022/05/17 03:35:04;;;;;;;9.13;2.80;;;14.70;99.90;;;;;;4953586;29;20831;-50
2022/05/17 03:37:30;;;;;;;14.50;3.20;;;14.70;99.90;;;;;;4970891;28;20756;-48
2022/05/17 03:39:55;;;;;;;17.92;3.28;;;14.60;99.90;;;;;;4972630;28;20027;-48
2022/05/17 03:42:21;;;;;;;16.48;3.38;;;14.50;99.90;;;;;;4972424;28;20027;-49
2022/05/17 03:44:47;;;;;;;23.63;4.22;;;14.40;99.90;;;;;;4973179;28;20490;-49
2022/05/17 03:47:13;;;;;;;16.88;4.05;;;14.50;99.90;;;;;;4972410;28;20038;-50
2022/05/17 03:49:39;;;;;;;17.53;3.03;;;14.60;99.90;;;;;;4970841;28;20081;-50
2022/05/17 03:52:06;;;;;;;16.90;3.50;;;14.60;99.90;;;;;;4972566;28;20473;-49
2022/05/17 03:54:33;;;;;;;17.88;2.85;;;14.60;99.90;;;;;;4972726;28;20101;-49
2022/05/17 03:56:59;;;;;;;12.77;2.92;;;14.60;99.90;;;;;;4972544;28;20165;-49
2022/05/17 03:59:25;;;;;;;6.68;3.03;;;14.60;99.90;;;;;;4972391;28;20475;-48
2022/05/17 04:01:50;;;;;;;12.15;3.38;;;14.60;99.90;;;;;;4957207;28;20137;-50
2022/05/17 04:04:17;;;;;;;10.85;3.10;;;14.60;99.90;;;;;;4952990;29;20034;-50
2022/05/17 04:06:42;;;;;;;11.57;3.63;;;14.70;99.90;;;;;;4952104;29;20070;-49
2022/05/17 04:09:10;;;;;;;7.35;2.75;;;14.80;99.90;;;;;;4953444;29;20468;-50
2022/05/17 04:11:36;;;;;;;11.13;3.22;;;14.80;99.90;;;;;;4952912;29;20035;-49
2022/05/17 04:14:03;;;;;;;14.93;3.85;;;14.90;99.90;;;;;;4952578;29;20042;-49
2022/05/17 04:16:34;;;;;;;12.57;3.57;;;14.90;99.90;;;;;;4952636;29;20034;-49
2022/05/17 04:19:00;;;;;;;9.88;3.72;;;14.90;99.90;;;;;;4951893;29;20302;-51
2022/05/17 04:21:26;;;;;;;15.80;3.55;;;14.90;99.90;;;;;;4953028;29;20050;-49
2022/05/17 04:23:52;;;;;;;13.68;3.08;;;14.80;99.90;;;;;;4952233;29;20387;-49
2022/05/17 04:26:18;;;;;;;12.52;3.35;;;14.80;99.90;;;;;;4952674;29;20081;-50
2022/05/17 04:28:44;;;;;;;13.70;4.20;;;14.90;99.90;;;;;;4935469;29;20130;-50
2022/05/17 04:31:10;;;;;;;13.25;3.00;;;14.90;99.90;;;;;;4935209;28;20197;-49
2022/05/17 04:33:36;;;;;;;13.00;3.50;;;14.90;99.90;;;;;;4952197;29;20114;-49
2022/05/17 04:36:02;;;;;;;12.85;3.15;;;15.00;99.90;;;;;;4953786;28;20031;-51
2022/05/17 04:38:28;;;;;;;14.35;3.15;;;15.00;99.90;;;;;;4969977;28;20039;-50
2022/05/17 04:40:54;;;;;;;15.30;3.80;;;15.00;99.90;;;;;;4970291;28;20037;-47
2022/05/17 04:43:20;;;;;;;20.13;3.45;;;15.00;99.90;;;;;;4969771;28;20023;-48
2022/05/17 04:45:45;;;;;;;17.33;3.53;;;15.00;99.90;;;;;;4969975;28;20030;-51
2022/05/17 04:48:11;;;;;;;7.97;3.05;;;15.00;99.90;;;;;;4969249;28;20050;-49
2022/05/17 04:50:38;;;;;;;10.45;3.00;;;15.10;99.90;;;;;;4970887;28;20034;-51
2022/05/17 04:53:04;;;;;;;11.00;3.93;;;15.10;99.90;;;;;;4971619;28;20033;-50
2022/05/17 04:55:31;;;;;;;10.85;2.60;;;15.10;99.90;;;;;;4972064;28;20037;-49
2022/05/17 04:57:57;;;;;;;11.98;3.35;;;15.20;99.90;;;;;;4971250;28;20512;-49
2022/05/17 05:00:24;;;;;;;9.45;2.90;;;15.20;99.90;;;;;;4972020;28;20023;-50
2022/05/17 05:02:51;;;;;;;10.02;3.38;;;15.10;99.90;;;;;;4971541;28;20050;-48
2022/05/17 05:05:18;;;;;;;8.68;2.88;;;15.20;99.90;;;;;;4971590;28;20030;-49
2022/05/17 05:07:45;;;;;;;11.70;3.60;;;15.30;99.90;;;;;;4971024;28;20055;-50
2022/05/17 05:10:11;;;;;;;;;;;15.30;99.90;;;;;;4972044;28;20089;-48
2022/05/17 05:12:37;;;;;;;11.07;3.33;;;15.30;99.90;;;;;;4970841;28;19917;-49
2022/05/17 05:15:04;;;;;;;7.63;3.75;;;15.40;99.90;;;;;;4970585;28;20035;-49
2022/05/17 05:17:36;;;;;;;9.85;3.42;;;15.50;99.90;;;;;;4970978;28;20031;-49
2022/05/17 05:20:02;;;;;;;12.05;4.07;;;15.50;99.90;;;;;;4971298;28;20112;-49
2022/05/17 05:22:33;;;;;;;13.18;3.15;;;15.50;99.90;;;;;;4970805;28;20122;-50
2022/05/17 05:24:59;;;;;;;8.77;3.50;;;15.50;99.90;;;;;;4971102;28;20493;-49
2022/05/17 05:27:25;;;;;;;12.00;3.47;;;15.50;99.90;;;;;;4970766;28;20102;-51
2022/05/17 05:29:51;;;;;;;9.35;3.17;;;15.50;99.90;;;;;;4970819;28;20027;-50
2022/05/17 05:32:16;;;;;;;11.07;4.00;;;15.50;99.90;;;;;;4970916;28;20430;-50
2022/05/17 05:34:42;;;;;;;8.43;3.55;;;15.50;99.90;;;;;;4971001;28;20750;-48
2022/05/17 05:37:08;;;;;;;18.55;3.25;;;15.60;99.90;;;;;;4970697;28;20066;-50
2022/05/17 05:39:33;;;;;;;7.45;2.92;;;15.60;99.90;;;;;;4970602;28;20035;-48
2022/05/17 05:42:00;;;;;;;7.45;3.17;;;15.60;99.90;;;;;;4970459;28;20031;-49
2022/05/17 05:44:25;;;;;;;15.48;3.95;;;15.70;99.90;;;;;;4970929;28;20035;-48
2022/05/17 05:46:51;;;;;;;11.65;3.08;;;15.80;99.90;;;;;;4970924;28;20435;-49
2022/05/17 05:49:17;;;;;;;9.05;3.30;;;15.80;99.90;;;;;;4970104;28;20055;-50
2022/05/17 05:51:43;;;;;;;5.95;2.78;;;15.80;99.90;;;;;;4953256;28;20058;-50
2022/05/17 05:54:09;;;;;;;43.50;5.63;;;15.90;99.90;;;;;;4970525;28;20023;-50
2022/05/17 05:56:36;;;;;;;8.50;3.53;;;16.00;99.90;;;;;;4970860;28;20023;-49
2022/05/17 05:59:02;;;;;;;7.28;3.13;;;16.10;99.90;;;;;;4970513;28;20035;-49
2022/05/17 06:01:28;;;;;;;8.43;3.40;;;16.10;99.90;;;;;;4959602;28;20032;-49
2022/05/17 06:03:54;;;;;;;9.68;3.75;;;16.10;99.90;;;;;;4950420;29;20035;-49
2022/05/17 06:06:19;;;;;;;23.05;4.32;;;16.00;99.90;;;;;;4951595;29;20078;-49
2022/05/17 06:08:45;;;;;;;18.77;4.40;;;16.10;99.90;;;;;;4951061;29;20332;-50
2022/05/17 06:11:11;;;;;;;12.75;3.70;;;16.10;99.90;;;;;;4951089;29;20046;-48
2022/05/17 06:13:36;;;;;;;8.23;3.45;;;16.10;99.90;;;;;;4951424;29;20042;-48
2022/05/17 06:16:03;;;;;;;8.63;3.70;;;16.20;99.90;;;;;;4951311;29;20506;-51
2022/05/17 06:18:29;;;;;;;12.27;5.07;;;16.20;99.90;;;;;;4951374;29;20039;-50
2022/05/17 06:20:56;;;;;;;11.55;4.60;;;16.10;99.90;;;;;;4951759;29;20024;-51
2022/05/17 06:23:23;;;;;;;10.73;4.80;;;16.20;99.90;;;;;;4951127;29;20034;-52
2022/05/17 06:25:49;;;;;;;8.50;3.63;;;16.20;99.90;;;;;;4954282;28;20482;-52
2022/05/17 06:28:16;;;;;;;108.23;13.43;;;16.20;99.90;;;;;;4955493;29;20031;-50
2022/05/17 06:30:44;;;;;;;15.00;4.65;;;16.20;99.90;;;;;;4953792;29;20279;-50
2022/05/17 06:33:17;;;;;;;12.95;4.13;;;16.30;99.90;;;;;;4954549;29;20038;-50
2022/05/17 06:35:45;;;;;;;15.75;4.45;;;16.30;99.90;;;;;;4955142;29;20130;-50
2022/05/17 06:38:15;;;;;;;12.65;4.30;;;16.30;99.90;;;;;;4936583;28;20040;-50
2022/05/17 06:40:41;;;;;;;9.50;3.65;;;16.40;99.90;;;;;;4936846;29;20087;-51
2022/05/17 06:43:08;;;;;;;25.47;5.60;;;16.50;99.90;;;;;;4954820;29;20035;-51
2022/05/17 06:45:34;;;;;;;18.60;4.97;;;16.60;99.90;;;;;;4955060;29;20019;-50
2022/05/17 06:48:04;;;;;;;12.98;4.22;;;16.70;99.90;;;;;;4953529;29;20118;-50
2022/05/17 06:50:37;;;;;;;12.65;4.75;;;16.70;99.90;;;;;;4950211;29;20134;-50
2022/05/17 06:53:07;;;;;;;14.48;4.13;;;16.90;99.90;;;;;;4937496;29;20031;-49
2022/05/17 06:55:37;;;;;;;15.38;4.28;;;17.00;99.90;;;;;;4954817;29;20114;-50
2022/05/17 06:58:03;;;;;;;24.02;4.63;;;17.00;99.90;;;;;;4937285;29;20035;-49
2022/05/17 07:00:31;;;;;;;16.75;4.97;;;17.10;99.90;;;;;;4953975;29;20436;-50
2022/05/17 07:02:59;;;;;;;15.75;4.10;;;17.10;99.90;;;;;;4936876;29;20031;-50
2022/05/17 07:05:30;;;;;;;;;;;17.20;99.90;;;;;;4934610;29;20031;-50
2022/05/17 07:08:06;;;;;;;12.65;4.53;;;17.30;99.90;;;;;;4953914;29;19910;-51
2022/05/17 07:13:17;;;;;;;33.25;6.05;;;17.20;99.90;;;;;;4954631;29;20050;-50
2022/05/17 07:15:48;;;;;;;12.85;4.68;;;17.20;99.90;;;;;;4954640;29;20395;-49
2022/05/17 07:18:17;;;;;;;28.95;5.28;;;17.20;99.90;;;;;;4952301;29;20046;-50
2022/05/17 07:20:44;;;;;;;13.02;3.95;;;17.30;99.90;;;;;;4952161;29;20024;-50
2022/05/17 07:23:11;;;;;;;20.60;5.18;;;17.40;99.90;;;;;;4952506;29;20035;-49
2022/05/17 07:25:41;;;;;;;22.58;5.53;;;17.50;99.90;;;;;;4953199;29;20039;-50
2022/05/17 07:28:08;;;;;;;9.02;3.80;;;17.60;99.90;;;;;;4952329;29;20114;-52
2022/05/17 07:30:37;;;;;;;12.43;4.38;;;17.70;99.90;;;;;;4952261;29;20054;-51
2022/05/17 07:33:06;;;;;;;9.52;3.92;;;17.70;99.90;;;;;;4952148;29;20090;-50
2022/05/17 07:35:32;;;;;;;9.73;4.10;;;17.80;99.90;;;;;;4952556;29;20106;-50
2022/05/17 07:37:59;;;;;;;16.92;3.83;;;17.90;99.90;;;;;;4967795;28;20324;-49
2022/05/17 07:40:27;;;;;;;12.55;3.92;;;18.00;99.90;;;;;;4973271;28;20022;-50
2022/05/17 07:42:56;;;;;;;10.57;4.68;;;18.00;99.90;;;;;;4971842;28;20102;-50
2022/05/17 07:45:22;;;;;;;10.48;4.13;;;18.10;99.90;;;;;;4972325;28;20035;-50
2022/05/17 07:47:48;;;;;;;13.17;5.37;;;18.20;99.90;;;;;;4972515;28;20131;-49
2022/05/17 07:50:17;;;;;;;15.32;5.57;;;18.20;99.90;;;;;;4973213;28;20434;-51
2022/05/17 07:52:43;;;;;;;15.48;4.35;;;18.10;99.90;;;;;;4972807;28;20034;-51
2022/05/17 07:55:10;;;;;;;19.17;4.65;;;18.20;99.90;;;;;;4972977;28;20058;-51
2022/05/17 07:57:37;;;;;;;13.68;3.75;;;18.20;99.90;;;;;;4970736;28;20105;-49
2022/05/17 08:00:05;;;;;;;17.92;4.38;;;18.30;99.90;;;;;;4961774;28;20035;-52
2022/05/17 08:02:35;;;;;;;16.65;5.35;;;18.30;99.90;;;;;;4936150;29;20043;-50
2022/05/17 08:05:01;;;;;;;10.50;4.13;;;18.30;99.90;;;;;;4953722;29;20027;-50
2022/05/17 08:07:27;;;;;;;12.35;5.10;;;18.30;99.90;;;;;;4936392;29;20035;-50
2022/05/17 08:09:53;;;;;;;14.30;4.97;;;18.30;99.90;;;;;;4936170;29;20031;-50
2022/05/17 08:12:20;;;;;;;10.55;4.93;;;18.30;99.90;;;;;;4953322;29;20034;-50
2022/05/17 08:14:48;;;;;;;10.38;3.30;;;18.40;99.90;;;;;;4952125;29;20420;-51
2022/05/17 08:17:16;;;;;;;8.73;3.70;;;18.40;99.90;;;;;;4935742;29;20118;-50
2022/05/17 08:19:43;;;;;;;10.55;4.20;;;18.40;99.90;;;;;;4951944;29;20023;-49
2022/05/17 08:22:13;;;;;;;15.07;4.35;;;18.30;99.90;;;;;;4933354;29;20035;-49
2022/05/17 08:27:36;;;;;;;13.40;4.57;;;18.50;99.90;;;;;;4932516;29;20079;-49
2022/05/17 08:30:23;;;;;;;9.93;4.13;;;18.50;99.90;;;;;;4930989;29;20479;-50
2022/05/17 08:33:17;;;;;;;12.40;4.53;;;18.60;99.90;;;;;;4929594;29;20179;-50
2022/05/17 08:35:46;;;;;;;11.50;3.35;;;18.50;99.90;;;;;;4931221;29;20353;-50
2022/05/17 08:38:27;;;;;;;10.35;3.58;;;18.60;99.90;;;;;;4946484;29;20047;-50
2022/05/17 08:41:02;;;;;;;15.30;4.00;;;18.70;99.90;;;;;;4936335;29;20032;-50
2022/05/17 08:43:54;;;;;;;14.07;3.85;;;18.80;99.90;;;;;;4951582;29;20035;-49
2022/05/17 08:46:59;;;;;;;8.55;3.42;;;18.80;99.90;;;;;;4935667;29;20034;-49
2022/05/17 08:49:38;;;;;;;12.45;3.55;;;18.80;99.90;;;;;;4929779;29;20087;-50
2022/05/17 08:52:15;;;;;;;14.93;4.40;;;18.80;99.90;;;;;;4933235;29;20146;-50
2022/05/17 08:54:51;;;;;;;12.63;4.10;;;18.90;99.90;;;;;;4932414;29;20023;-50
2022/05/17 08:57:39;;;;;;;10.18;3.60;;;19.00;99.90;;;;;;4932413;29;20055;-50
2022/05/17 09:00:05;;;;;;;33.88;4.75;;;19.00;99.90;;;;;;4933614;29;20035;-50
2022/05/17 09:03:01;;;;;;;20.00;4.43;;;19.10;99.90;;;;;;4947581;29;20501;-49
2022/05/17 09:05:29;;;;;;;10.85;3.70;;;19.10;99.90;;;;;;4933737;29;20036;-49
2022/05/17 09:08:23;;;;;;;9.88;3.88;;;19.20;99.90;;;;;;4933345;29;20024;-50
2022/05/17 09:11:10;;;;;;;10.90;4.25;;;19.10;99.90;;;;;;4932594;29;20031;-50
2022/05/17 09:14:01;;;;;;;11.50;3.63;;;19.20;99.90;;;;;;4931788;29;20034;-50
2022/05/17 09:16:37;;;;;;;10.38;3.83;;;19.30;99.90;;;;;;4933202;29;20044;-48
2022/05/17 09:19:06;;;;;;;38.75;27.08;;;19.40;99.90;;;;;;4932767;29;20046;-50
2022/05/17 09:21:36;;;;;;;17.70;5.68;;;19.40;99.90;;;;;;4932685;29;20027;-50
2022/05/17 09:24:06;;;;;;;13.18;4.57;;;19.60;99.90;;;;;;4932933;29;20034;-50
2022/05/17 09:26:33;;;;;;;8.77;3.47;;;19.70;99.90;;;;;;4933285;29;20035;-49
2022/05/17 09:29:25;;;;;;;16.92;4.03;;;19.70;99.90;;;;;;4933017;29;20032;-49
2022/05/17 09:31:59;;;;;;;8.25;3.20;;;19.70;99.90;;;;;;4928675;29;20851;-49
2022/05/17 09:34:45;;;;;;;10.23;4.03;;;19.70;99.90;;;;;;4931031;29;20110;-50
2022/05/17 09:37:20;;;;;;;9.23;3.70;;;19.80;99.90;;;;;;4928995;29;20051;-49
2022/05/17 09:39:49;;;;;;;10.38;3.38;;;19.90;99.90;;;;;;4929570;29;20036;-49
2022/05/17 09:42:43;;;;;;;13.02;3.85;;;19.90;99.90;;;;;;4931062;29;20019;-49
2022/05/17 09:45:15;;;;;;;12.55;3.30;;;20.00;99.90;;;;;;4914690;29;20491;-49
2022/05/17 09:47:43;;;;;;;12.63;3.10;;;20.00;99.90;;;;;;4932721;29;20105;-50
2022/05/17 09:53:07;;;;;;;7.15;2.42;;;19.90;99.90;;;;;;4949741;29;20113;-48
2022/05/17 09:55:34;;;;;;;8.50;3.15;;;19.80;99.90;;;;;;4949527;29;20031;-50
2022/05/17 09:58:00;;;;;;;9.05;3.15;;;19.80;99.90;;;;;;4948915;29;20040;-49
2022/05/17 10:00:50;;;;;;;15.45;3.10;;;19.80;99.90;;;;;;4934377;29;20036;-49
2022/05/17 10:03:16;;;;;;;13.75;3.78;;;19.90;99.90;;;;;;4954396;29;20026;-50
2022/05/17 10:05:49;;;;;;;15.45;3.40;;;19.90;99.90;;;;;;4954844;29;20035;-52
2022/05/17 10:08:15;;;;;;;13.15;2.92;;;20.00;99.90;;;;;;4954882;29;20019;-50
2022/05/17 10:10:47;;;;;;;7.38;2.80;;;19.90;99.90;;;;;;4955865;29;20081;-49
2022/05/17 10:13:22;;;;;;;6.82;2.95;;;19.90;99.90;;;;;;4955298;29;20387;-46
2022/05/17 10:15:53;;;;;;;11.68;3.72;;;19.90;99.90;;;;;;4955248;29;20042;-51
2022/05/17 10:18:30;;;;;;;8.98;2.88;;;19.90;99.90;;;;;;4955704;29;20038;-51
2022/05/17 10:21:04;;;;;;;14.75;3.05;;;20.00;99.90;;;;;;4955646;29;20027;-51
2022/05/17 10:23:36;;;;;;;8.93;3.50;;;20.00;99.00;;;;;;4955058;29;20379;-49
2022/05/17 10:26:15;;;;;;;8.85;2.85;;;20.00;97.50;;;;;;4955099;29;20490;-50
2022/05/17 10:28:50;;;;;;;13.07;3.25;;;20.00;99.90;;;;;;4955335;29;20035;-50
2022/05/17 10:31:44;;;;;;;11.38;3.42;;;20.00;99.90;;;;;;4955140;29;20023;-49
2022/05/17 10:34:30;;;;;;;8.38;3.38;;;20.10;99.40;;;;;;4935181;29;20028;-51
2022/05/17 10:37:02;;;;;;;8.98;3.75;;;20.10;98.90;;;;;;4954707;29;20047;-51
2022/05/17 10:39:53;;;;;;;12.48;3.75;;;20.10;99.90;;;;;;4953831;29;20386;-51
2022/05/17 10:42:20;;;;;;;11.70;3.42;;;20.20;99.90;;;;;;4951962;29;20059;-49
2022/05/17 10:44:53;;;;;;;10.07;3.35;;;20.20;99.90;;;;;;4936499;29;20042;-50
2022/05/17 10:47:39;;;;;;;11.63;3.70;;;20.10;99.90;;;;;;4952075;29;20037;-49
2022/05/17 10:50:18;;;;;;;8.88;2.90;;;20.20;96.40;;;;;;4953126;29;20045;-50
2022/05/17 10:53:09;;;;;;;8.77;2.55;;;20.20;94.80;;;;;;4951760;29;20023;-49
2022/05/17 10:56:06;;;;;;;13.18;3.45;;;20.40;95.50;;;;;;4953176;29;20028;-51
2022/05/17 10:58:41;;;;;;;11.10;3.40;;;20.40;97.10;;;;;;4953591;29;20031;-51
2022/05/17 11:01:25;;;;;;;7.43;2.75;;;20.50;96.70;;;;;;4953454;29;20030;-50
2022/05/17 11:04:22;;;;;;;10.10;3.53;;;20.20;94.80;;;;;;4952769;29;20027;-51
2022/05/17 11:06:51;;;;;;;9.82;2.58;;;20.30;95.50;;;;;;4952130;29;20066;-51
2022/05/17 11:09:28;;;;;;;9.70;3.38;;;20.30;96.20;;;;;;4953183;29;20028;-50
2022/05/17 11:12:04;;;;;;;12.73;4.28;;;20.30;99.00;;;;;;4949550;28;20158;-51
2022/05/17 11:14:58;;;;;;;14.45;3.95;;;20.10;99.90;;;;;;4935258;29;20038;-50
2022/05/17 11:17:51;;;;;;;14.95;4.18;;;20.00;99.90;;;;;;4951930;29;20032;-49
2022/05/17 11:20:32;;;;;;;16.20;4.22;;;19.90;99.90;;;;;;4951354;29;20111;-49
2022/05/17 11:23:11;;;;;;;19.48;4.00;;;19.70;99.90;;;;;;4950862;29;20034;-48
2022/05/17 11:25:51;;;;;;;12.30;4.70;;;19.60;99.90;;;;;;4966413;28;20085;-50
2022/05/17 11:28:23;;;;;;;16.95;5.13;;;19.30;99.90;;;;;;4962394;28;20055;-49
2022/05/17 11:31:00;;;;;;;28.55;4.97;;;19.20;99.90;;;;;;4954148;29;20027;-52
2022/05/17 11:33:38;;;;;;;15.75;5.03;;;19.20;99.90;;;;;;4953151;29;20066;-50
2022/05/17 11:36:32;;;;;;;14.93;5.35;;;19.10;99.90;;;;;;4954013;29;20039;-48
2022/05/17 11:38:59;;;;;;;17.15;4.85;;;18.90;99.90;;;;;;4946922;28;20093;-49
2022/05/17 11:41:33;;;;;;;17.30;4.97;;;18.90;99.90;;;;;;4962020;28;20019;-50
2022/05/17 11:44:19;;;;;;;15.85;5.47;;;18.90;99.90;;;;;;4959691;28;20027;-50
2022/05/17 11:46:57;;;;;;;20.13;5.45;;;18.80;99.90;;;;;;4957227;28;20237;-50
2022/05/17 11:49:29;;;;;;;13.75;6.80;;;18.90;99.90;;;;;;4960647;28;20054;-49
2022/05/17 11:51:58;;;;;;;17.90;5.93;;;18.90;99.90;;;;;;4957785;28;20030;-50
2022/05/17 11:54:51;;;;;;;15.45;6.25;;;18.90;99.90;;;;;;4958798;28;20027;-49
2022/05/17 11:57:23;;;;;;;17.60;7.28;;;18.90;99.90;;;;;;4958679;28;20037;-49
2022/05/17 12:00:01;;;;;;;15.35;6.00;;;18.80;99.90;;;;;;4972943;28;20158;-50
2022/05/17 12:02:46;;;;;;;23.55;6.68;;;18.70;99.90;;;;;;4953927;28;20027;-51
2022/05/17 12:07:40;;;;;;;14.35;6.47;;;18.60;99.90;;;;;;4935551;29;20121;-50
2022/05/17 12:10:16;;;;;;;21.02;7.30;;;18.50;99.90;;;;;;4944379;29;20869;-50
2022/05/17 12:13:07;;;;;;;17.52;7.05;;;18.40;99.90;;;;;;4944298;29;20058;-51
2022/05/17 12:15:52;;;;;;;21.58;7.65;;;18.30;99.90;;;;;;4941660;28;20090;-49
2022/05/17 12:18:27;;;;;;;26.08;9.05;;;18.30;99.90;;;;;;4932620;29;20550;-50
2022/05/17 12:21:16;;;;;;;17.45;7.93;;;18.20;99.90;;;;;;4947847;28;20090;-49
2022/05/17 12:23:54;;;;;;;18.20;8.25;;;18.10;99.90;;;;;;4951720;28;20031;-49
2022/05/17 12:26:46;;;;;;;16.15;8.00;;;18.00;99.90;;;;;;4917048;29;20019;-52
2022/05/17 12:32:04;;;;;;;26.30;8.77;;;17.40;99.90;;;;;;4933906;29;20070;-48
2022/05/17 12:34:29;;;;;;;20.02;9.10;;;17.30;99.90;;;;;;4932203;29;20032;-50
2022/05/17 12:37:08;;;;;;;18.05;9.43;;;17.40;99.90;;;;;;4935935;29;20447;-49
2022/05/17 12:45:09;;;;;;;21.75;9.63;;;17.60;99.90;;;;;;4933612;29;20086;-51
2022/05/17 12:48:03;;;;;;;20.17;10.00;;;17.60;99.90;;;;;;4933446;29;20515;-50
2022/05/17 12:50:45;;;;;;;23.33;9.48;;;17.40;99.90;;;;;;4935475;29;20053;-49
2022/05/17 12:53:17;;;;;;;17.20;9.32;;;17.30;99.90;;;;;;4937265;29;20058;-50
2022/05/17 12:56:17;;;;;;;19.65;9.85;;;17.40;99.90;;;;;;4947853;28;20122;-49
2022/05/17 12:58:54;;;;;;;20.15;9.15;;;17.20;99.90;;;;;;4949498;29;20059;-50
2022/05/17 13:01:50;;;;;;;17.65;10.05;;;17.10;99.90;;;;;;4950665;28;20139;-50
2022/05/17 13:04:17;;;;;;;17.60;9.13;;;17.00;99.90;;;;;;4934367;29;20034;-49
2022/05/17 13:06:50;;;;;;;20.60;9.60;;;16.90;99.90;;;;;;4930362;29;20103;-49
2022/05/17 13:09:20;;;;;;;20.83;10.70;;;16.80;99.90;;;;;;4929489;29;20090;-49
2022/05/17 13:11:47;;;;;;;19.98;9.52;;;16.70;99.90;;;;;;4930301;29;20190;-50
2022/05/17 13:14:21;;;;;;;22.70;11.67;;;16.70;99.90;;;;;;4930902;29;20066;-50
2022/05/17 13:16:50;;;;;;;25.38;11.60;;;16.80;99.90;;;;;;4925761;29;20063;-50
2022/05/17 13:19:25;;;;;;;21.58;10.70;;;16.80;99.90;;;;;;4924304;29;20059;-51